sensor_id;sensor_type;location;lat;lon;timestamp;pressure;altitude;pressure_sealevel;temperature;humidity
19777;BME280;10047;42.490;26.012;2023-02-04T00:00:44;100264.41;;;1.68;100.00
19777;BME280;10047;42.490;26.012;2023-02-04T00:03:10;100264.59;;;1.82;100.00
19777;BME280;10047;42.490;26.012;2023-02-04T00:05:36;100263.03;;;1.95;100.00
19777;BME280;10047;42.490;26.012;2023-02-04T00:08:02;100217.78;;;1.80;100.00
19777;BME280;10047;42.490;26.012;2023-02-04T00:10:27;100160.53;;;1.39;100.00
19777;BME280;10047;42.490;26.012;2023-02-04T00:16:14;100263.25;;;2.14;100.00
19777;BME280;10047;42.490;26.012;2023-02-04T00:18:40;100264.03;;;2.09;100.00
19777;BME280;10047;42.490;26.012;2023-02-04T00:21:05;100242.91;;;1.87;100.00
19777;BME280;10047;42.490;26.012;2023-02-04T00:26:52;100223.72;;;1.88;100.00
19777;BME280;10047;42.490;26.012;2023-02-04T00:29:17;100165.66;;;1.48;100.00
19777;BME280;10047;42.490;26.012;2023-02-04T00:31:43;100191.69;;;1.62;100.00
19777;BME280;10047;42.490;26.012;2023-02-04T00:37:30;100135.41;;;1.29;100.00
19777;BME280;10047;42.490;26.012;2023-02-04T00:39:56;100119.25;;;1.06;100.00
19777;BME280;10047;42.490;26.012;2023-02-04T00:42:21;100199.72;;;1.37;100.00
19777;BME280;10047;42.490;26.012;2023-02-04T00:44:46;100109.94;;;0.36;100.00
19777;BME280;10047;42.490;26.012;2023-02-04T00:47:12;100136.91;;;1.18;100.00
19777;BME280;10047;42.490;26.012;2023-02-04T00:53:06;100193.50;;;1.74;100.00
19777;BME280;10047;42.490;26.012;2023-02-04T00:55:31;100100.50;;;1.47;100.00
19777;BME280;10047;42.490;26.012;2023-02-04T00:57:57;100113.69;;;1.29;100.00
19777;BME280;10047;42.490;26.012;2023-02-04T01:00:22;100171.69;;;1.65;100.00
19777;BME280;10047;42.490;26.012;2023-02-04T01:02:48;100042.22;;;0.82;100.00
19777;BME280;10047;42.490;26.012;2023-02-04T01:05:13;100099.69;;;1.46;100.00
19777;BME280;10047;42.490;26.012;2023-02-04T01:07:38;100022.63;;;1.17;100.00
19777;BME280;10047;42.490;26.012;2023-02-04T01:10:04;100109.88;;;1.63;100.00
19777;BME280;10047;42.490;26.012;2023-02-04T01:12:30;100186.00;;;1.77;100.00
19777;BME280;10047;42.490;26.012;2023-02-04T01:14:55;100024.34;;;1.22;100.00
19777;BME280;10047;42.490;26.012;2023-02-04T01:20:42;100117.50;;;1.76;100.00
19777;BME280;10047;42.490;26.012;2023-02-04T01:23:08;100147.91;;;2.10;100.00
19777;BME280;10047;42.490;26.012;2023-02-04T01:25:33;100168.19;;;2.37;100.00
19777;BME280;10047;42.490;26.012;2023-02-04T01:27:58;100062.44;;;1.80;100.00
19777;BME280;10047;42.490;26.012;2023-02-04T01:33:45;100137.88;;;2.13;100.00
19777;BME280;10047;42.490;26.012;2023-02-04T01:36:11;100132.97;;;2.23;100.00
19777;BME280;10047;42.490;26.012;2023-02-04T01:38:37;100129.78;;;2.45;100.00
19777;BME280;10047;42.490;26.012;2023-02-04T01:41:03;100058.28;;;1.82;100.00
19777;BME280;10047;42.490;26.012;2023-02-04T01:43:29;100126.19;;;2.12;100.00
19777;BME280;10047;42.490;26.012;2023-02-04T01:45:54;100133.66;;;2.07;100.00
19777;BME280;10047;42.490;26.012;2023-02-04T01:48:20;100122.09;;;2.20;100.00
19777;BME280;10047;42.490;26.012;2023-02-04T01:54:12;100012.19;;;1.64;100.00
19777;BME280;10047;42.490;26.012;2023-02-04T02:00:00;99992.88;;;1.51;100.00
19777;BME280;10047;42.490;26.012;2023-02-04T02:02:48;100078.47;;;2.03;100.00
19777;BME280;10047;42.490;26.012;2023-02-04T02:07:53;99921.59;;;1.09;100.00
19777;BME280;10047;42.490;26.012;2023-02-04T02:10:19;99993.78;;;1.59;100.00
19777;BME280;10047;42.490;26.012;2023-02-04T02:12:45;100078.53;;;2.07;100.00
19777;BME280;10047;42.490;26.012;2023-02-04T02:15:12;99985.59;;;1.82;100.00
19777;BME280;10047;42.490;26.012;2023-02-04T02:17:38;100042.63;;;2.13;100.00
19777;BME280;10047;42.490;26.012;2023-02-04T02:23:43;100048.53;;;2.21;100.00
19777;BME280;10047;42.490;26.012;2023-02-04T02:26:10;100069.66;;;2.62;100.00
19777;BME280;10047;42.490;26.012;2023-02-04T02:31:57;100052.50;;;1.93;100.00
19777;BME280;10047;42.490;26.012;2023-02-04T02:34:25;100049.28;;;2.08;100.00
19777;BME280;10047;42.490;26.012;2023-02-04T02:36:51;100015.09;;;2.17;100.00
19777;BME280;10047;42.490;26.012;2023-02-04T02:39:16;100033.59;;;2.40;100.00
19777;BME280;10047;42.490;26.012;2023-02-04T02:41:43;100007.75;;;2.47;100.00
19777;BME280;10047;42.490;26.012;2023-02-04T02:44:10;100037.78;;;2.37;100.00
19777;BME280;10047;42.490;26.012;2023-02-04T02:53:32;100031.13;;;2.45;100.00
19777;BME280;10047;42.490;26.012;2023-02-04T02:55:58;100021.00;;;2.25;100.00
19777;BME280;10047;42.490;26.012;2023-02-04T02:58:35;100033.69;;;2.60;100.00
19777;BME280;10047;42.490;26.012;2023-02-04T03:01:04;100026.94;;;2.39;100.00
19777;BME280;10047;42.490;26.012;2023-02-04T03:03:35;99928.91;;;1.96;100.00
19777;BME280;10047;42.490;26.012;2023-02-04T03:06:18;99913.09;;;2.10;100.00
19777;BME280;10047;42.490;26.012;2023-02-04T03:08:45;99919.66;;;1.87;100.00
19777;BME280;10047;42.490;26.012;2023-02-04T03:11:12;99956.53;;;2.12;100.00
19777;BME280;10047;42.490;26.012;2023-02-04T03:13:37;99994.28;;;2.38;100.00
19777;BME280;10047;42.490;26.012;2023-02-04T03:16:04;99985.19;;;2.58;100.00
19777;BME280;10047;42.490;26.012;2023-02-04T03:18:30;99914.00;;;2.26;100.00
19777;BME280;10047;42.490;26.012;2023-02-04T03:20:56;99924.84;;;2.20;100.00
19777;BME280;10047;42.490;26.012;2023-02-04T03:23:23;99984.28;;;2.44;100.00
19777;BME280;10047;42.490;26.012;2023-02-04T03:25:49;99913.06;;;2.04;100.00
19777;BME280;10047;42.490;26.012;2023-02-04T03:28:14;99964.94;;;2.19;100.00
19777;BME280;10047;42.490;26.012;2023-02-04T03:30:40;99905.47;;;1.91;100.00
19777;BME280;10047;42.490;26.012;2023-02-04T03:33:05;99902.16;;;1.95;100.00
19777;BME280;10047;42.490;26.012;2023-02-04T03:38:52;99965.78;;;2.21;100.00
19777;BME280;10047;42.490;26.012;2023-02-04T03:44:40;99969.84;;;2.01;100.00
19777;BME280;10047;42.490;26.012;2023-02-04T03:47:05;99967.38;;;2.08;100.00
19777;BME280;10047;42.490;26.012;2023-02-04T03:49:30;99881.94;;;1.58;100.00
19777;BME280;10047;42.490;26.012;2023-02-04T03:51:56;99959.91;;;2.11;100.00
19777;BME280;10047;42.490;26.012;2023-02-04T03:57:43;99812.41;;;1.26;100.00
19777;BME280;10047;42.490;26.012;2023-02-04T04:00:10;99858.56;;;1.67;100.00
19777;BME280;10047;42.490;26.012;2023-02-04T04:02:35;99923.91;;;2.00;100.00
19777;BME280;10047;42.490;26.012;2023-02-04T04:05:01;99941.53;;;2.14;100.00
19777;BME280;10047;42.490;26.012;2023-02-04T04:07:26;99939.84;;;2.13;100.00
19777;BME280;10047;42.490;26.012;2023-02-04T04:09:51;99899.66;;;1.90;100.00
19777;BME280;10047;42.490;26.012;2023-02-04T04:12:17;99901.31;;;1.93;100.00
19777;BME280;10047;42.490;26.012;2023-02-04T04:14:42;99868.59;;;1.68;100.00
19777;BME280;10047;42.490;26.012;2023-02-04T04:17:08;99861.00;;;1.55;100.00
19777;BME280;10047;42.490;26.012;2023-02-04T04:19:33;99917.31;;;2.20;100.00
19777;BME280;10047;42.490;26.012;2023-02-04T04:21:58;99876.19;;;1.79;100.00
19777;BME280;10047;42.490;26.012;2023-02-04T04:24:24;99842.72;;;1.72;100.00
19777;BME280;10047;42.490;26.012;2023-02-04T04:26:49;99895.50;;;2.04;100.00
19777;BME280;10047;42.490;26.012;2023-02-04T04:29:15;99865.28;;;1.69;100.00
19777;BME280;10047;42.490;26.012;2023-02-04T04:31:40;99924.81;;;2.13;100.00
19777;BME280;10047;42.490;26.012;2023-02-04T04:34:05;99913.00;;;1.89;100.00
19777;BME280;10047;42.490;26.012;2023-02-04T04:36:31;99852.69;;;1.56;100.00
19777;BME280;10047;42.490;26.012;2023-02-04T04:38:56;99851.44;;;2.85;100.00
19777;BME280;10047;42.490;26.012;2023-02-04T04:41:22;99914.84;;;2.25;100.00
19777;BME280;10047;42.490;26.012;2023-02-04T04:43:47;99902.28;;;2.17;100.00
19777;BME280;10047;42.490;26.012;2023-02-04T04:46:12;99852.03;;;1.95;100.00
19777;BME280;10047;42.490;26.012;2023-02-04T04:48:38;99887.97;;;1.97;100.00
19777;BME280;10047;42.490;26.012;2023-02-04T04:51:03;99911.56;;;2.47;100.00
19777;BME280;10047;42.490;26.012;2023-02-04T04:53:29;99898.06;;;2.15;100.00
19777;BME280;10047;42.490;26.012;2023-02-04T04:55:54;99839.50;;;1.92;100.00
19777;BME280;10047;42.490;26.012;2023-02-04T05:01:41;99894.03;;;2.47;100.00
19777;BME280;10047;42.490;26.012;2023-02-04T05:04:06;99893.13;;;2.33;100.00
19777;BME280;10047;42.490;26.012;2023-02-04T05:06:32;99906.50;;;2.29;100.00
19777;BME280;10047;42.490;26.012;2023-02-04T05:08:57;99842.84;;;1.92;100.00
19777;BME280;10047;42.490;26.012;2023-02-04T05:11:22;99904.88;;;2.41;100.00
19777;BME280;10047;42.490;26.012;2023-02-04T05:13:48;99823.31;;;1.35;100.00
19777;BME280;10047;42.490;26.012;2023-02-04T05:16:13;99812.56;;;1.50;100.00
19777;BME280;10047;42.490;26.012;2023-02-04T05:18:40;99915.56;;;2.00;100.00
19777;BME280;10047;42.490;26.012;2023-02-04T05:21:06;99869.38;;;1.57;100.00
19777;BME280;10047;42.490;26.012;2023-02-04T05:23:32;99789.97;;;1.36;100.00
19777;BME280;10047;42.490;26.012;2023-02-04T05:25:58;99893.06;;;2.16;100.00
19777;BME280;10047;42.490;26.012;2023-02-04T05:28:24;99833.56;;;1.71;100.00
19777;BME280;10047;42.490;26.012;2023-02-04T05:30:49;99890.50;;;2.00;100.00
19777;BME280;10047;42.490;26.012;2023-02-04T05:33:14;99881.34;;;2.12;100.00
19777;BME280;10047;42.490;26.012;2023-02-04T05:35:40;99861.25;;;2.00;100.00
19777;BME280;10047;42.490;26.012;2023-02-04T05:38:05;99775.78;;;1.38;100.00
19777;BME280;10047;42.490;26.012;2023-02-04T05:43:52;99901.34;;;1.97;100.00
19777;BME280;10047;42.490;26.012;2023-02-04T05:46:17;99885.47;;;2.00;100.00
19777;BME280;10047;42.490;26.012;2023-02-04T05:48:43;99876.22;;;1.84;100.00
19777;BME280;10047;42.490;26.012;2023-02-04T05:54:36;99823.50;;;1.65;100.00
19777;BME280;10047;42.490;26.012;2023-02-04T05:57:01;99885.38;;;1.83;100.00
19777;BME280;10047;42.490;26.012;2023-02-04T05:59:26;99831.78;;;1.55;100.00
19777;BME280;10047;42.490;26.012;2023-02-04T06:01:52;99878.56;;;1.58;100.00
19777;BME280;10047;42.490;26.012;2023-02-04T06:04:17;99848.41;;;1.38;100.00
19777;BME280;10047;42.490;26.012;2023-02-04T06:06:43;99814.03;;;1.18;100.00
19777;BME280;10047;42.490;26.012;2023-02-04T06:12:29;99896.09;;;1.58;100.00
19777;BME280;10047;42.490;26.012;2023-02-04T06:14:55;99885.13;;;1.39;100.00
19777;BME280;10047;42.490;26.012;2023-02-04T06:17:20;99897.03;;;1.73;100.00
19777;BME280;10047;42.490;26.012;2023-02-04T06:19:45;99812.38;;;1.20;100.00
19777;BME280;10047;42.490;26.012;2023-02-04T06:22:11;99799.03;;;1.19;100.00
19777;BME280;10047;42.490;26.012;2023-02-04T06:24:36;99800.03;;;1.42;100.00
19777;BME280;10047;42.490;26.012;2023-02-04T06:27:02;99820.00;;;1.41;100.00
19777;BME280;10047;42.490;26.012;2023-02-04T06:29:27;99888.03;;;2.07;100.00
19777;BME280;10047;42.490;26.012;2023-02-04T06:31:52;99871.31;;;2.09;100.00
19777;BME280;10047;42.490;26.012;2023-02-04T06:34:18;99885.69;;;2.49;100.00
19777;BME280;10047;42.490;26.012;2023-02-04T06:40:05;99868.06;;;2.31;100.00
19777;BME280;10047;42.490;26.012;2023-02-04T06:45:52;99867.84;;;1.85;100.00
19777;BME280;10047;42.490;26.012;2023-02-04T06:48:18;99747.38;;;1.35;100.00
19777;BME280;10047;42.490;26.012;2023-02-04T06:50:43;99829.41;;;1.73;100.00
19777;BME280;10047;42.490;26.012;2023-02-04T06:56:30;99857.00;;;1.87;100.00
19777;BME280;10047;42.490;26.012;2023-02-04T06:58:56;99896.28;;;1.93;100.00
19777;BME280;10047;42.490;26.012;2023-02-04T07:01:21;99848.44;;;1.47;100.00
19777;BME280;10047;42.490;26.012;2023-02-04T07:07:09;99857.09;;;2.04;100.00
19777;BME280;10047;42.490;26.012;2023-02-04T07:09:35;99851.25;;;2.03;100.00
19777;BME280;10047;42.490;26.012;2023-02-04T07:12:02;99904.91;;;2.55;100.00
19777;BME280;10047;42.490;26.012;2023-02-04T07:14:28;99914.84;;;2.22;100.00
19777;BME280;10047;42.490;26.012;2023-02-04T07:16:53;99862.09;;;1.98;100.00
19777;BME280;10047;42.490;26.012;2023-02-04T07:19:18;99906.50;;;2.32;100.00
19777;BME280;10047;42.490;26.012;2023-02-04T07:25:07;99837.94;;;2.19;100.00
19777;BME280;10047;42.490;26.012;2023-02-04T07:27:32;99909.94;;;2.55;100.00
19777;BME280;10047;42.490;26.012;2023-02-04T07:29:58;99831.28;;;2.36;100.00
19777;BME280;10047;42.490;26.012;2023-02-04T07:32:23;99882.31;;;2.43;100.00
19777;BME280;10047;42.490;26.012;2023-02-04T07:34:48;99909.09;;;2.63;100.00
19777;BME280;10047;42.490;26.012;2023-02-04T07:37:14;99821.97;;;1.92;100.00
19777;BME280;10047;42.490;26.012;2023-02-04T07:39:39;99837.81;;;1.89;100.00
19777;BME280;10047;42.490;26.012;2023-02-04T07:42:05;99904.84;;;2.31;100.00
19777;BME280;10047;42.490;26.012;2023-02-04T07:44:30;99848.78;;;2.18;100.00
19777;BME280;10047;42.490;26.012;2023-02-04T07:46:55;99826.94;;;1.84;100.00
19777;BME280;10047;42.490;26.012;2023-02-04T07:49:21;99779.19;;;1.46;100.00
19777;BME280;10047;42.490;26.012;2023-02-04T07:51:47;99919.13;;;2.53;100.00
19777;BME280;10047;42.490;26.012;2023-02-04T07:54:12;99908.22;;;2.48;100.00
19777;BME280;10047;42.490;26.012;2023-02-04T07:56:37;99904.00;;;2.38;100.00
19777;BME280;10047;42.490;26.012;2023-02-04T07:59:03;99824.50;;;2.02;100.00
19777;BME280;10047;42.490;26.012;2023-02-04T08:04:50;99807.03;;;2.32;100.00
19777;BME280;10047;42.490;26.012;2023-02-04T08:07:15;99818.81;;;3.12;100.00
19777;BME280;10047;42.490;26.012;2023-02-04T08:09:40;99900.00;;;3.06;100.00
19777;BME280;10047;42.490;26.012;2023-02-04T08:15:34;99861.34;;;2.24;100.00
19777;BME280;10047;42.490;26.012;2023-02-04T08:17:59;99823.75;;;2.27;100.00
19777;BME280;10047;42.490;26.012;2023-02-04T08:20:24;99919.25;;;3.30;100.00
19777;BME280;10047;42.490;26.012;2023-02-04T08:26:12;99849.00;;;5.92;100.00
19777;BME280;10047;42.490;26.012;2023-02-04T08:28:37;99842.22;;;2.82;100.00
19777;BME280;10047;42.490;26.012;2023-02-04T08:31:04;99818.81;;;2.83;100.00
19777;BME280;10047;42.490;26.012;2023-02-04T08:36:52;99756.88;;;2.40;100.00
19777;BME280;10047;42.490;26.012;2023-02-04T08:42:39;99828.84;;;3.10;100.00
19777;BME280;10047;42.490;26.012;2023-02-04T08:45:05;99812.09;;;3.02;100.00
19777;BME280;10047;42.490;26.012;2023-02-04T08:47:30;99899.94;;;3.65;100.00
19777;BME280;10047;42.490;26.012;2023-02-04T08:53:36;99884.09;;;3.28;100.00
19777;BME280;10047;42.490;26.012;2023-02-04T08:56:02;99904.13;;;3.78;100.00
19777;BME280;10047;42.490;26.012;2023-02-04T09:01:49;99915.88;;;3.16;100.00
19777;BME280;10047;42.490;26.012;2023-02-04T09:04:20;99894.13;;;3.42;100.00
19777;BME280;10047;42.490;26.012;2023-02-04T09:06:46;99824.66;;;3.26;100.00
19777;BME280;10047;42.490;26.012;2023-02-04T09:09:12;99903.28;;;3.73;100.00
19777;BME280;10047;42.490;26.012;2023-02-04T09:11:37;99844.69;;;3.53;100.00
19777;BME280;10047;42.490;26.012;2023-02-04T09:14:03;99919.25;;;3.31;100.00
19777;BME280;10047;42.490;26.012;2023-02-04T09:16:29;99902.50;;;3.45;100.00
19777;BME280;10047;42.490;26.012;2023-02-04T09:18:54;99887.41;;;3.33;100.00
19777;BME280;10047;42.490;26.012;2023-02-04T09:21:20;99837.22;;;2.93;100.00
19777;BME280;10047;42.490;26.012;2023-02-04T09:27:07;99745.16;;;3.05;100.00
19777;BME280;10047;42.490;26.012;2023-02-04T09:32:54;99867.19;;;4.01;100.00
19777;BME280;10047;42.490;26.012;2023-02-04T09:35:19;99797.88;;;3.10;100.00
19777;BME280;10047;42.490;26.012;2023-02-04T09:37:45;99808.72;;;3.31;100.00
19777;BME280;10047;42.490;26.012;2023-02-04T09:40:14;99785.34;;;3.04;100.00
19777;BME280;10047;42.490;26.012;2023-02-04T09:42:42;99789.41;;;3.62;100.00
19777;BME280;10047;42.490;26.012;2023-02-04T09:45:17;99863.72;;;4.31;100.00
19777;BME280;10047;42.490;26.012;2023-02-04T09:51:06;99766.81;;;3.50;100.00
19777;BME280;10047;42.490;26.012;2023-02-04T09:53:33;99820.94;;;4.26;100.00
19777;BME280;10047;42.490;26.012;2023-02-04T09:55:59;99838.69;;;3.99;100.00
19777;BME280;10047;42.490;26.012;2023-02-04T09:58:29;99745.00;;;3.57;100.00
19777;BME280;10047;42.490;26.012;2023-02-04T10:00:58;99754.09;;;3.89;100.00
19777;BME280;10047;42.490;26.012;2023-02-04T10:03:25;99792.38;;;4.39;100.00
19777;BME280;10047;42.490;26.012;2023-02-04T10:05:51;99826.50;;;4.81;100.00
19777;BME280;10047;42.490;26.012;2023-02-04T10:08:19;99821.78;;;5.38;100.00
19777;BME280;10047;42.490;26.012;2023-02-04T10:10:47;99802.13;;;5.70;100.00
19777;BME280;10047;42.490;26.012;2023-02-04T10:13:18;99681.31;;;5.53;100.00
19777;BME280;10047;42.490;26.012;2023-02-04T10:15:46;99800.75;;;6.72;100.00
19777;BME280;10047;42.490;26.012;2023-02-04T10:18:25;99720.00;;;6.14;100.00
19777;BME280;10047;42.490;26.012;2023-02-04T10:20:56;99726.03;;;6.06;100.00
19777;BME280;10047;42.490;26.012;2023-02-04T10:23:25;99699.06;;;6.09;100.00
19777;BME280;10047;42.490;26.012;2023-02-04T10:25:50;99740.94;;;6.21;100.00
19777;BME280;10047;42.490;26.012;2023-02-04T10:28:15;99709.44;;;6.95;100.00
19777;BME280;10047;42.490;26.012;2023-02-04T10:30:42;99765.03;;;6.93;100.00
19777;BME280;10047;42.490;26.012;2023-02-04T10:33:21;99638.56;;;6.05;100.00
19777;BME280;10047;42.490;26.012;2023-02-04T10:35:50;99757.31;;;7.48;100.00
19777;BME280;10047;42.490;26.012;2023-02-04T10:38:17;99740.38;;;7.52;100.00
19777;BME280;10047;42.490;26.012;2023-02-04T10:40:42;99742.94;;;7.92;100.00
19777;BME280;10047;42.490;26.012;2023-02-04T10:43:16;99737.59;;;7.23;100.00
19777;BME280;10047;42.490;26.012;2023-02-04T10:45:46;99720.44;;;8.16;100.00
19777;BME280;10047;42.490;26.012;2023-02-04T10:48:18;99703.56;;;7.80;100.00
19777;BME280;10047;42.490;26.012;2023-02-04T10:50:47;99722.66;;;7.53;100.00
19777;BME280;10047;42.490;26.012;2023-02-04T10:53:21;99668.63;;;7.16;100.00
19777;BME280;10047;42.490;26.012;2023-02-04T10:56:15;99709.66;;;9.43;100.00
19777;BME280;10047;42.490;26.012;2023-02-04T10:58:41;99616.00;;;8.08;100.00
19777;BME280;10047;42.490;26.012;2023-02-04T11:01:11;99703.38;;;9.25;100.00
19777;BME280;10047;42.490;26.012;2023-02-04T11:03:37;99690.44;;;8.71;100.00
19777;BME280;10047;42.490;26.012;2023-02-04T11:06:10;99678.25;;;8.52;100.00
19777;BME280;10047;42.490;26.012;2023-02-04T11:08:36;99607.50;;;8.11;100.00
19777;BME280;10047;42.490;26.012;2023-02-04T11:14:27;99670.56;;;7.02;100.00
19777;BME280;10047;42.490;26.012;2023-02-04T11:20:28;99671.22;;;7.12;100.00
19777;BME280;10047;42.490;26.012;2023-02-04T11:22:54;99571.56;;;6.39;100.00
19777;BME280;10047;42.490;26.012;2023-02-04T11:25:34;99683.59;;;7.27;100.00
19777;BME280;10047;42.490;26.012;2023-02-04T11:28:15;99671.56;;;7.38;100.00
19777;BME280;10047;42.490;26.012;2023-02-04T11:30:58;99667.03;;;7.11;100.00
19777;BME280;10047;42.490;26.012;2023-02-04T11:33:23;99529.72;;;6.70;100.00
19777;BME280;10047;42.490;26.012;2023-02-04T11:36:04;99659.59;;;7.84;100.00
19777;BME280;10047;42.490;26.012;2023-02-04T11:38:31;99661.06;;;7.56;100.00
19777;BME280;10047;42.490;26.012;2023-02-04T11:40:57;99649.78;;;7.70;100.00
19777;BME280;10047;42.490;26.012;2023-02-04T11:46:50;99651.13;;;7.47;100.00
19777;BME280;10047;42.490;26.012;2023-02-04T11:49:18;99575.81;;;7.23;100.00
19777;BME280;10047;42.490;26.012;2023-02-04T11:51:44;99635.50;;;7.28;100.00
19777;BME280;10047;42.490;26.012;2023-02-04T11:54:12;99638.59;;;7.42;100.00
19777;BME280;10047;42.490;26.012;2023-02-04T11:56:38;99589.00;;;7.37;100.00
19777;BME280;10047;42.490;26.012;2023-02-04T11:59:03;99551.75;;;7.05;100.00
19777;BME280;10047;42.490;26.012;2023-02-04T12:01:31;99537.47;;;7.03;100.00
19777;BME280;10047;42.490;26.012;2023-02-04T12:03:59;99535.63;;;7.11;100.00
19777;BME280;10047;42.490;26.012;2023-02-04T12:06:27;99521.72;;;6.90;100.00
19777;BME280;10047;42.490;26.012;2023-02-04T12:09:07;99620.97;;;7.38;100.00
19777;BME280;10047;42.490;26.012;2023-02-04T12:11:57;99523.53;;;6.83;100.00
19777;BME280;10047;42.490;26.012;2023-02-04T12:14:32;99602.56;;;7.31;100.00
19777;BME280;10047;42.490;26.012;2023-02-04T12:16:57;99489.38;;;6.67;100.00
19777;BME280;10047;42.490;26.012;2023-02-04T12:19:23;99484.81;;;6.84;100.00
19777;BME280;10047;42.490;26.012;2023-02-04T12:21:48;99584.75;;;7.39;100.00
19777;BME280;10047;42.490;26.012;2023-02-04T12:24:14;99570.34;;;7.41;100.00
19777;BME280;10047;42.490;26.012;2023-02-04T12:26:39;99488.94;;;6.88;100.00
19777;BME280;10047;42.490;26.012;2023-02-04T12:29:05;99567.31;;;7.63;100.00
19777;BME280;10047;42.490;26.012;2023-02-04T12:31:31;99492.34;;;7.24;100.00
19777;BME280;10047;42.490;26.012;2023-02-04T12:33:57;99556.75;;;7.81;100.00
19777;BME280;10047;42.490;26.012;2023-02-04T12:36:23;99554.50;;;8.05;100.00
19777;BME280;10047;42.490;26.012;2023-02-04T12:38:52;99452.22;;;7.46;100.00
19777;BME280;10047;42.490;26.012;2023-02-04T12:41:17;99456.47;;;7.45;100.00
19777;BME280;10047;42.490;26.012;2023-02-04T12:43:44;99472.16;;;7.92;100.00
19777;BME280;10047;42.490;26.012;2023-02-04T12:46:10;99453.28;;;7.72;100.00
19777;BME280;10047;42.490;26.012;2023-02-04T12:48:35;99529.78;;;8.14;100.00
19777;BME280;10047;42.490;26.012;2023-02-04T12:51:05;99533.00;;;8.21;100.00
19777;BME280;10047;42.490;26.012;2023-02-04T12:53:30;99549.59;;;8.32;100.00
19777;BME280;10047;42.490;26.012;2023-02-04T12:55:56;99507.94;;;8.12;100.00
19777;BME280;10047;42.490;26.012;2023-02-04T12:58:21;99357.75;;;7.16;100.00
19777;BME280;10047;42.490;26.012;2023-02-04T13:04:09;99531.47;;;7.45;100.00
19777;BME280;10047;42.490;26.012;2023-02-04T13:06:34;99469.19;;;7.06;100.00
19777;BME280;10047;42.490;26.012;2023-02-04T13:08:59;99536.75;;;7.36;100.00
19777;BME280;10047;42.490;26.012;2023-02-04T13:11:25;99448.19;;;6.64;100.00
19777;BME280;10047;42.490;26.012;2023-02-04T13:17:12;99499.59;;;7.03;100.00
19777;BME280;10047;42.490;26.012;2023-02-04T13:19:37;99447.69;;;6.48;100.00
19777;BME280;10047;42.490;26.012;2023-02-04T13:22:02;99542.25;;;7.16;100.00
19777;BME280;10047;42.490;26.012;2023-02-04T13:24:28;99564.91;;;7.21;100.00
19777;BME280;10047;42.490;26.012;2023-02-04T13:26:53;99451.75;;;6.54;100.00
19777;BME280;10047;42.490;26.012;2023-02-04T13:29:19;99546.16;;;6.89;100.00
19777;BME280;10047;42.490;26.012;2023-02-04T13:35:07;99491.28;;;6.56;100.00
19777;BME280;10047;42.490;26.012;2023-02-04T13:37:33;99485.28;;;6.19;100.00
19777;BME280;10047;42.490;26.012;2023-02-04T13:39:58;99479.00;;;6.38;100.00
19777;BME280;10047;42.490;26.012;2023-02-04T13:42:24;99573.69;;;7.01;100.00
19777;BME280;10047;42.490;26.012;2023-02-04T13:44:49;99577.44;;;6.84;100.00
19777;BME280;10047;42.490;26.012;2023-02-04T13:47:14;99479.81;;;6.40;100.00
19777;BME280;10047;42.490;26.012;2023-02-04T13:53:01;99488.38;;;6.33;100.00
19777;BME280;10047;42.490;26.012;2023-02-04T13:55:27;99523.38;;;6.51;100.00
19777;BME280;10047;42.490;26.012;2023-02-04T13:57:52;99520.31;;;6.34;100.00
19777;BME280;10047;42.490;26.012;2023-02-04T14:00:18;99599.31;;;6.85;100.00
19777;BME280;10047;42.490;26.012;2023-02-04T14:02:43;99626.22;;;6.86;100.00
19777;BME280;10047;42.490;26.012;2023-02-04T14:05:09;99605.38;;;6.76;100.00
19777;BME280;10047;42.490;26.012;2023-02-04T14:07:34;99619.03;;;6.66;100.00
19777;BME280;10047;42.490;26.012;2023-02-04T14:09:59;99561.00;;;6.16;100.00
19777;BME280;10047;42.490;26.012;2023-02-04T14:12:25;99627.81;;;6.44;100.00
19777;BME280;10047;42.490;26.012;2023-02-04T14:14:50;99540.63;;;5.78;100.00
19777;BME280;10047;42.490;26.012;2023-02-04T14:17:16;99554.13;;;5.74;100.00
19777;BME280;10047;42.490;26.012;2023-02-04T14:19:41;99567.47;;;5.79;100.00
19777;BME280;10047;42.490;26.012;2023-02-04T14:22:06;99650.19;;;6.15;100.00
19777;BME280;10047;42.490;26.012;2023-02-04T14:24:32;99582.84;;;5.64;100.00
19777;BME280;10047;42.490;26.012;2023-02-04T14:26:58;99629.72;;;5.78;100.00
19777;BME280;10047;42.490;26.012;2023-02-04T14:32:45;99610.34;;;5.79;100.00
19777;BME280;10047;42.490;26.012;2023-02-04T14:35:11;99690.47;;;6.21;100.00
19777;BME280;10047;42.490;26.012;2023-02-04T14:37:37;99612.47;;;5.50;100.00
19777;BME280;10047;42.490;26.012;2023-02-04T14:43:24;99633.69;;;5.32;100.00
19777;BME280;10047;42.490;26.012;2023-02-04T14:49:11;99688.50;;;5.83;100.00
19777;BME280;10047;42.490;26.012;2023-02-04T14:51:37;99680.09;;;5.81;100.00
19777;BME280;10047;42.490;26.012;2023-02-04T14:54:02;99704.34;;;5.93;100.00
19777;BME280;10047;42.490;26.012;2023-02-04T14:56:28;99673.44;;;5.76;100.00
19777;BME280;10047;42.490;26.012;2023-02-04T15:02:15;99618.59;;;5.31;100.00
19777;BME280;10047;42.490;26.012;2023-02-04T15:04:43;99699.44;;;5.81;100.00
19777;BME280;10047;42.490;26.012;2023-02-04T15:07:10;99718.66;;;5.91;100.00
19777;BME280;10047;42.490;26.012;2023-02-04T15:12:57;99744.16;;;5.67;100.00
19777;BME280;10047;42.490;26.012;2023-02-04T15:15:23;99593.25;;;4.74;100.00
19777;BME280;10047;42.490;26.012;2023-02-04T15:17:48;99666.88;;;4.94;100.00
19777;BME280;10047;42.490;26.012;2023-02-04T15:26:38;99613.72;;;4.41;100.00
19777;BME280;10047;42.490;26.012;2023-02-04T15:31:48;99771.44;;;5.35;100.00